Time;durP1;ratioP1;P1;durP2;ratioP2;P2;SDS_P1;SDS_P2;PMS_P1;PMS_P2;Temp;Humidity;BMP_temperature;BMP_pressure;BME280_temperature;BME280_humidity;BME280_pressure;Samples;Min_cycle;Max_cycle;Signal;HPM_P1;HPM_P2
2022/09/27 00:00:29;;;;;;;20.10;16.47;;;27.90;99.40;;;;;;4977123;28;20675;-94
2022/09/27 00:03:01;;;;;;;17.97;15.77;;;27.90;99.50;;;;;;4976584;28;20532;-95
2022/09/27 00:05:35;;;;;;;20.13;16.23;;;28.00;99.90;;;;;;4976881;28;20683;-94
2022/09/27 00:08:07;;;;;;;18.17;15.67;;;28.00;99.90;;;;;;4976698;28;20207;-94
2022/09/27 00:10:39;;;;;;;17.83;15.93;;;27.90;99.90;;;;;;4977840;28;20207;-96
2022/09/27 00:13:11;;;;;;;19.57;16.00;;;27.70;99.90;;;;;;4973382;28;20209;-96
2022/09/27 00:15:42;;;;;;;19.03;17.10;;;27.50;99.90;;;;;;4967780;28;20241;-95
2022/09/27 00:18:15;;;;;;;21.20;16.23;;;27.30;99.90;;;;;;4980832;28;20203;-94
2022/09/27 00:20:49;;;;;;;19.43;16.47;;;27.00;99.90;;;;;;4977345;28;20634;-96
2022/09/27 00:23:22;;;;;;;18.90;16.77;;;26.70;99.90;;;;;;4978153;28;20219;-95
2022/09/27 00:25:58;;;;;;;18.23;16.37;;;26.50;99.90;;;;;;4977816;28;20207;-95
2022/09/27 00:28:30;;;;;;;18.47;16.60;;;26.40;99.90;;;;;;4979333;28;20207;-93
2022/09/27 00:31:02;;;;;;;19.70;17.60;;;26.20;99.90;;;;;;4978402;28;20270;-94
2022/09/27 00:33:36;;;;;;;18.30;16.23;;;26.00;99.90;;;;;;4971040;28;20578;-96
2022/09/27 00:36:12;;;;;;;20.37;17.53;;;25.80;99.90;;;;;;4970498;28;20249;-94
2022/09/27 00:38:45;;;;;;;23.30;17.77;;;25.60;99.90;;;;;;4979201;28;20290;-94
2022/09/27 00:41:18;;;;;;;24.20;17.47;;;25.50;99.90;;;;;;4982871;28;20217;-95
2022/09/27 00:43:51;;;;;;;20.57;17.00;;;25.50;99.90;;;;;;4978465;28;20234;-94
2022/09/27 00:46:29;;;;;;;20.27;17.50;;;25.40;99.90;;;;;;4978165;28;20214;-93
2022/09/27 00:49:16;;;;;;;20.43;16.53;;;25.30;99.90;;;;;;4978026;28;20257;-94
2022/09/27 00:51:56;;;;;;;19.30;16.60;;;25.20;99.90;;;;;;4978376;28;20214;-94
2022/09/27 00:54:30;;;;;;;21.87;17.80;;;25.00;99.90;;;;;;4978881;28;20223;-96
2022/09/27 00:57:02;;;;;;;19.40;17.30;;;24.90;99.90;;;;;;4967635;28;20234;-94
2022/09/27 00:59:39;;;;;;;19.13;16.80;;;24.80;99.90;;;;;;4961584;28;20211;-95
2022/09/27 01:02:13;;;;;;;18.40;16.37;;;24.70;99.90;;;;;;4966633;28;20688;-95
2022/09/27 01:04:46;;;;;;;19.93;17.00;;;24.50;99.90;;;;;;4967580;28;20266;-96
2022/09/27 01:07:21;;;;;;;19.27;16.87;;;24.40;99.90;;;;;;4969078;28;20210;-96
2022/09/27 01:09:52;;;;;;;22.93;17.63;;;24.30;99.90;;;;;;4977511;28;20656;-96
2022/09/27 01:12:29;;;;;;;21.73;18.60;;;24.20;99.90;;;;;;4976788;28;20215;-96
2022/09/27 01:15:13;;;;;;;20.97;18.70;;;24.00;99.90;;;;;;4969811;28;20231;-96
2022/09/27 01:17:55;;;;;;;19.43;17.03;;;23.90;99.90;;;;;;4964296;28;20203;-96
2022/09/27 01:21:07;;;;;;;22.87;17.73;;;23.80;99.90;;;;;;4977724;28;20207;-96
2022/09/27 01:24:28;;;;;;;20.33;16.80;;;23.60;99.90;;;;;;4962479;28;20222;-96
2022/09/27 01:27:28;;;;;;;22.37;18.00;;;23.40;99.90;;;;;;4901214;29;20209;-94
2022/09/27 01:30:28;;;;;;;21.70;17.30;;;23.30;99.90;;;;;;4922859;29;20224;-96
2022/09/27 01:33:19;;;;;;;19.60;17.67;;;23.10;99.90;;;;;;4965150;28;20211;-96
2022/09/27 01:36:02;;;;;;;19.60;17.47;;;23.00;99.90;;;;;;4979180;28;20238;-94
2022/09/27 01:38:42;;;;;;;19.97;16.80;;;22.90;99.90;;;;;;4980153;28;20222;-96
2022/09/27 01:41:24;;;;;;;19.13;17.07;;;22.80;99.90;;;;;;4974363;28;20202;-96
2022/09/27 01:44:05;;;;;;;20.90;17.33;;;22.70;99.90;;;;;;4981236;28;20659;-94
2022/09/27 01:46:40;;;;;;;21.40;18.20;;;22.60;99.90;;;;;;4966398;28;20214;-95
2022/09/27 01:49:18;;;;;;;24.00;17.27;;;22.50;99.90;;;;;;4975650;28;21467;-96
2022/09/27 01:51:54;;;;;;;21.83;17.97;;;22.40;99.90;;;;;;4972132;28;20218;-95
2022/09/27 01:54:29;;;;;;;19.10;17.10;;;22.30;99.90;;;;;;4974700;28;20206;-96
2022/09/27 01:57:02;;;;;;;20.07;17.47;;;22.20;99.90;;;;;;4981906;28;20326;-96
2022/09/27 01:59:40;;;;;;;19.93;16.80;;;22.00;99.90;;;;;;4966195;28;20361;-96
2022/09/27 02:02:12;;;;;;;21.77;17.33;;;22.00;99.90;;;;;;4991694;28;20229;-96
2022/09/27 02:04:49;;;;;;;23.43;17.87;;;21.80;99.90;;;;;;4975340;28;20215;-96
2022/09/27 02:07:24;;;;;;;22.17;17.40;;;21.70;99.90;;;;;;4970913;28;20784;-95
2022/09/27 02:10:01;;;;;;;20.83;18.10;;;21.60;99.90;;;;;;4972093;28;20278;-95
2022/09/27 02:12:43;;;;;;;21.87;17.70;;;21.60;99.90;;;;;;4988881;28;20223;-95
2022/09/27 02:15:16;;;;;;;20.50;17.40;;;21.50;99.90;;;;;;4988493;28;20202;-95
2022/09/27 02:17:58;;;;;;;22.13;18.97;;;21.40;99.90;;;;;;4993666;28;20773;-95
2022/09/27 02:20:35;;;;;;;27.30;20.90;;;21.30;99.90;;;;;;4986023;28;20271;-96
2022/09/27 02:23:15;;;;;;;28.87;23.53;;;21.30;99.90;;;;;;4982814;28;20214;-96
2022/09/27 02:25:52;;;;;;;34.47;22.83;;;21.20;99.90;;;;;;4977273;28;20214;-96
2022/09/27 02:28:28;;;;;;;30.07;22.93;;;21.20;99.90;;;;;;4981754;28;20215;-95
2022/09/27 02:30:59;;;;;;;24.47;20.97;;;21.10;99.90;;;;;;4981966;28;20211;-95
2022/09/27 02:33:35;;;;;;;27.57;21.93;;;21.00;99.90;;;;;;4977876;28;20247;-95
2022/09/27 02:36:10;;;;;;;28.23;22.80;;;20.90;99.90;;;;;;4979043;28;20222;-95
2022/09/27 02:38:42;;;;;;;25.10;20.03;;;20.90;99.90;;;;;;4981938;28;20905;-96
2022/09/27 02:41:17;;;;;;;26.30;19.73;;;20.80;99.90;;;;;;4994098;28;20255;-96
2022/09/27 02:43:53;;;;;;;32.33;17.90;;;20.80;99.90;;;;;;4983492;28;20230;-96
2022/09/27 02:46:42;;;;;;;21.33;16.73;;;20.70;99.90;;;;;;4979985;28;20316;-96
2022/09/27 02:49:30;;;;;;;20.07;17.43;;;20.70;99.90;;;;;;4997665;28;20203;-96
2022/09/27 02:52:14;;;;;;;22.07;16.57;;;20.60;99.90;;;;;;4989793;28;20195;-96
2022/09/27 02:54:53;;;;;;;23.13;16.07;;;20.50;99.90;;;;;;4992874;28;20283;-96
2022/09/27 02:57:35;;;;;;;20.90;16.40;;;20.50;99.90;;;;;;4994643;28;20218;-96
2022/09/27 03:00:10;;;;;;;19.27;16.27;;;20.40;99.90;;;;;;4990637;28;20199;-96
2022/09/27 03:02:53;;;;;;;18.57;15.80;;;20.30;99.90;;;;;;4996829;28;20208;-96
2022/09/27 03:05:28;;;;;;;19.70;15.33;;;20.20;99.90;;;;;;4997031;28;20214;-96
2022/09/27 03:08:01;;;;;;;25.97;15.57;;;20.20;99.90;;;;;;4982867;28;20245;-94
2022/09/27 03:10:33;;;;;;;23.20;16.27;;;20.10;99.90;;;;;;4977664;28;20218;-95
2022/09/27 03:13:04;;;;;;;20.30;16.30;;;20.00;99.90;;;;;;4976856;28;20213;-95
2022/09/27 03:15:36;;;;;;;19.00;14.63;;;19.90;99.90;;;;;;4980004;28;20219;-95
2022/09/27 03:18:07;;;;;;;20.33;16.30;;;19.90;99.90;;;;;;4977398;28;20235;-95
2022/09/27 03:20:38;;;;;;;21.87;16.73;;;19.80;99.90;;;;;;4977834;28;20208;-96
2022/09/27 03:23:12;;;;;;;22.27;15.87;;;19.80;99.90;;;;;;4976776;28;20226;-95
2022/09/27 03:25:46;;;;;;;19.43;16.03;;;19.70;99.90;;;;;;4977696;28;20214;-96
2022/09/27 03:28:17;;;;;;;18.27;16.00;;;19.70;99.90;;;;;;4976820;28;20214;-96
2022/09/27 03:30:48;;;;;;;18.60;15.10;;;19.60;99.90;;;;;;4957977;28;20211;-94
2022/09/27 03:33:19;;;;;;;16.63;14.83;;;19.60;99.90;;;;;;4957261;28;20218;-95
2022/09/27 03:35:50;;;;;;;19.00;15.10;;;19.50;99.90;;;;;;4959304;28;20212;-94
2022/09/27 03:38:24;;;;;;;17.87;14.97;;;19.50;99.90;;;;;;4958623;28;20211;-95
2022/09/27 03:40:55;;;;;;;17.67;15.80;;;19.50;99.90;;;;;;4972494;28;20218;-95
2022/09/27 03:43:28;;;;;;;19.97;15.97;;;19.40;99.90;;;;;;4957286;28;20215;-96
2022/09/27 03:45:59;;;;;;;20.90;16.77;;;19.40;99.90;;;;;;4961966;28;20223;-95
2022/09/27 03:48:31;;;;;;;19.40;15.07;;;19.30;99.90;;;;;;4977059;28;20258;-95
2022/09/27 03:51:03;;;;;;;19.07;16.70;;;19.30;99.90;;;;;;4976889;28;20219;-96
2022/09/27 03:53:37;;;;;;;20.10;16.20;;;19.20;99.90;;;;;;4967193;28;20219;-95
2022/09/27 03:56:08;;;;;;;20.23;15.50;;;19.20;99.90;;;;;;4972045;28;20226;-95
2022/09/27 03:58:39;;;;;;;18.77;16.07;;;19.10;99.90;;;;;;4975202;28;20244;-95
2022/09/27 04:01:11;;;;;;;20.47;16.93;;;19.10;99.90;;;;;;4977008;28;20237;-95
2022/09/27 04:03:44;;;;;;;19.77;16.73;;;19.00;99.90;;;;;;4974312;28;20215;-95
2022/09/27 04:06:16;;;;;;;20.23;16.77;;;19.00;99.90;;;;;;4973224;28;20195;-94
2022/09/27 04:08:51;;;;;;;25.20;17.47;;;19.00;99.90;;;;;;4973373;28;20215;-94
2022/09/27 04:11:23;;;;;;;19.90;17.13;;;19.00;99.90;;;;;;4977404;28;20206;-94
2022/09/27 04:13:55;;;;;;;22.57;17.90;;;19.00;99.90;;;;;;4971225;28;20272;-95
2022/09/27 04:16:26;;;;;;;23.53;17.47;;;19.00;99.90;;;;;;4978054;28;20258;-95
2022/09/27 04:18:57;;;;;;;22.80;17.83;;;19.00;99.90;;;;;;4976991;28;20672;-95
2022/09/27 04:21:29;;;;;;;20.47;16.37;;;18.90;99.90;;;;;;4975792;28;20211;-95
2022/09/27 04:24:05;;;;;;;20.37;16.53;;;18.90;99.90;;;;;;4980951;28;20229;-95
2022/09/27 04:26:36;;;;;;;20.40;17.70;;;18.90;99.90;;;;;;4978314;28;20243;-96
2022/09/27 04:29:09;;;;;;;23.17;17.57;;;18.80;99.90;;;;;;4962044;28;20215;-95
2022/09/27 04:31:41;;;;;;;20.27;17.13;;;18.80;99.90;;;;;;4957239;29;20208;-96
2022/09/27 04:34:12;;;;;;;21.00;17.27;;;18.70;99.90;;;;;;4957713;29;20303;-95
2022/09/27 04:36:42;;;;;;;21.17;17.43;;;18.70;99.90;;;;;;4968911;28;20232;-94
2022/09/27 04:39:15;;;;;;;20.37;16.73;;;18.60;99.90;;;;;;4976398;28;20219;-95
2022/09/27 04:41:47;;;;;;;24.13;17.10;;;18.60;99.90;;;;;;4977259;28;20242;-96
2022/09/27 04:44:19;;;;;;;19.70;17.57;;;18.50;99.90;;;;;;4978096;28;20214;-95
2022/09/27 04:46:51;;;;;;;22.30;18.00;;;18.50;99.90;;;;;;4983196;28;20278;-96
2022/09/27 04:49:22;;;;;;;21.60;18.07;;;18.40;99.90;;;;;;4992357;28;20271;-95
2022/09/27 04:51:53;;;;;;;21.97;18.80;;;18.30;99.90;;;;;;4994719;28;20207;-95
2022/09/27 04:54:28;;;;;;;21.83;17.70;;;18.30;99.90;;;;;;4985973;28;20210;-94
2022/09/27 04:56:59;;;;;;;21.97;18.00;;;18.30;99.90;;;;;;4971904;28;20260;-93
2022/09/27 04:59:30;;;;;;;21.57;17.30;;;18.20;99.90;;;;;;4976474;28;20217;-95
2022/09/27 05:02:02;;;;;;;23.83;19.20;;;18.20;99.90;;;;;;4976480;28;20217;-94
2022/09/27 05:04:33;;;;;;;22.30;17.53;;;18.10;99.90;;;;;;4976043;28;20569;-95
2022/09/27 05:07:04;;;;;;;22.80;18.10;;;18.10;99.90;;;;;;4979041;28;20262;-96
2022/09/27 05:09:38;;;;;;;20.87;17.50;;;18.10;99.90;;;;;;4981005;28;20211;-95
2022/09/27 05:12:11;;;;;;;19.87;17.77;;;18.10;99.90;;;;;;4979638;28;20229;-95
2022/09/27 05:14:42;;;;;;;22.77;18.60;;;18.00;99.90;;;;;;4982620;28;20210;-95
2022/09/27 05:17:15;;;;;;;22.57;17.73;;;18.00;99.90;;;;;;4979404;28;20234;-95
2022/09/27 05:19:46;;;;;;;20.27;18.13;;;18.00;99.90;;;;;;4979235;28;20207;-95
2022/09/27 05:22:18;;;;;;;21.10;17.33;;;18.00;99.90;;;;;;4979374;28;20223;-95
2022/09/27 05:24:54;;;;;;;21.20;17.80;;;17.90;99.90;;;;;;4979424;28;20223;-95
2022/09/27 05:27:24;;;;;;;22.80;17.97;;;17.90;99.90;;;;;;4962887;28;20218;-94
2022/09/27 05:29:56;;;;;;;23.57;17.47;;;17.90;99.90;;;;;;4980329;28;20238;-96
2022/09/27 05:32:28;;;;;;;21.03;16.97;;;17.90;99.90;;;;;;4983549;28;20215;-94
2022/09/27 05:34:59;;;;;;;21.40;16.97;;;17.90;99.90;;;;;;4987984;28;20241;-93
2022/09/27 05:37:32;;;;;;;19.80;17.00;;;17.90;99.90;;;;;;4983534;28;20233;-95
2022/09/27 05:40:06;;;;;;;19.00;16.83;;;17.80;99.90;;;;;;4960621;28;20207;-95
2022/09/27 05:42:58;;;;;;;21.33;18.03;;;17.80;99.90;;;;;;4958119;29;20211;-96
2022/09/27 05:45:30;;;;;;;22.60;17.13;;;17.80;99.90;;;;;;4960422;28;20200;-95
2022/09/27 05:48:01;;;;;;;20.40;16.77;;;17.80;99.90;;;;;;4959886;28;20218;-95
2022/09/27 05:50:32;;;;;;;20.50;16.60;;;17.80;99.90;;;;;;4963093;28;20687;-96
2022/09/27 05:53:04;;;;;;;22.30;18.20;;;17.80;99.90;;;;;;4967883;28;20207;-96
2022/09/27 05:55:38;;;;;;;18.93;16.83;;;17.70;99.90;;;;;;4979294;28;20218;-96
2022/09/27 05:58:15;;;;;;;20.00;16.90;;;17.70;99.90;;;;;;4977943;28;20237;-95
2022/09/27 06:00:46;;;;;;;20.60;16.27;;;17.70;99.90;;;;;;4978162;28;20207;-95
2022/09/27 06:03:18;;;;;;;19.37;17.23;;;17.60;99.90;;;;;;4978392;28;20219;-96
2022/09/27 06:05:49;;;;;;;19.47;16.90;;;17.60;99.90;;;;;;4977167;28;20203;-95
2022/09/27 06:08:20;;;;;;;19.80;17.10;;;17.60;99.90;;;;;;4978005;28;20214;-95
2022/09/27 06:11:03;;;;;;;21.23;17.63;;;17.50;99.90;;;;;;4979380;28;20203;-95
2022/09/27 06:13:35;;;;;;;18.63;16.63;;;17.50;99.90;;;;;;4978394;28;20213;-94
2022/09/27 06:16:07;;;;;;;21.33;16.83;;;17.50;99.90;;;;;;4982085;28;20301;-93
2022/09/27 06:18:38;;;;;;;18.70;15.67;;;17.40;99.90;;;;;;4974480;28;20230;-94
2022/09/27 06:21:09;;;;;;;18.57;16.40;;;17.40;99.90;;;;;;4978172;28;20206;-96
2022/09/27 06:23:41;;;;;;;20.27;16.77;;;17.30;99.90;;;;;;4981732;28;20210;-95
2022/09/27 06:26:14;;;;;;;20.93;16.83;;;17.30;99.90;;;;;;4978956;28;20211;-96
2022/09/27 06:28:46;;;;;;;18.43;16.30;;;17.20;99.90;;;;;;4986050;28;20215;-94
2022/09/27 06:31:17;;;;;;;19.53;16.53;;;17.20;99.90;;;;;;4991808;28;20223;-93
2022/09/27 06:33:49;;;;;;;19.27;16.50;;;17.10;99.90;;;;;;4988918;28;20820;-94
2022/09/27 06:36:21;;;;;;;21.67;17.20;;;17.00;99.90;;;;;;4993357;28;20205;-96
2022/09/27 06:38:52;;;;;;;20.93;16.70;;;17.00;99.90;;;;;;4981640;28;20239;-94
2022/09/27 06:41:26;;;;;;;19.27;16.93;;;16.90;99.90;;;;;;4983202;28;20215;-96
2022/09/27 06:43:57;;;;;;;18.47;16.23;;;16.90;99.90;;;;;;4970981;28;20304;-95
2022/09/27 06:46:28;;;;;;;18.90;16.43;;;16.80;99.90;;;;;;4992628;28;20207;-96
2022/09/27 06:49:00;;;;;;;21.23;16.73;;;16.80;99.90;;;;;;4994212;28;20221;-96
2022/09/27 06:51:32;;;;;;;20.63;16.47;;;16.80;99.90;;;;;;4975757;28;20751;-95
2022/09/27 06:54:02;;;;;;;19.37;16.47;;;16.80;99.90;;;;;;4960672;28;20231;-95
2022/09/27 06:56:35;;;;;;;22.53;15.60;;;16.80;99.90;;;;;;4959370;28;20234;-96
2022/09/27 07:01:55;;;;;;;18.00;16.10;;;16.70;99.90;;;;;;4976228;28;20221;-94
2022/09/27 07:04:26;;;;;;;20.97;17.00;;;16.70;99.90;;;;;;4978240;28;20207;-96
2022/09/27 07:06:58;;;;;;;19.87;17.33;;;16.70;99.90;;;;;;4977879;28;20227;-96
2022/09/27 07:09:29;;;;;;;20.10;17.57;;;16.60;99.90;;;;;;4977963;28;20211;-95
2022/09/27 07:12:02;;;;;;;19.77;16.63;;;16.60;99.90;;;;;;4977488;28;20207;-95
2022/09/27 07:14:34;;;;;;;20.07;17.77;;;16.60;99.90;;;;;;4976154;28;20207;-95
2022/09/27 07:17:06;;;;;;;20.20;17.03;;;16.50;99.90;;;;;;4977956;28;20207;-94
2022/09/27 07:19:37;;;;;;;20.70;17.27;;;16.50;99.90;;;;;;4978623;28;20251;-94
2022/09/27 07:22:08;;;;;;;20.63;17.33;;;16.50;99.90;;;;;;4978149;28;20207;-96
2022/09/27 07:24:42;;;;;;;19.27;17.27;;;16.50;99.90;;;;;;4981001;28;20278;-94
2022/09/27 07:27:17;;;;;;;21.40;17.10;;;16.40;99.90;;;;;;4980042;28;20233;-95
2022/09/27 07:29:48;;;;;;;19.97;17.07;;;16.40;99.90;;;;;;4992775;28;20265;-94
2022/09/27 07:32:19;;;;;;;19.57;17.03;;;16.40;99.90;;;;;;4995818;28;20561;-94
2022/09/27 07:34:51;;;;;;;19.77;16.97;;;16.40;99.90;;;;;;4993123;28;20278;-95
2022/09/27 07:37:22;;;;;;;18.83;16.53;;;16.40;99.90;;;;;;4988058;28;20270;-95
2022/09/27 07:39:53;;;;;;;20.00;16.47;;;16.30;99.90;;;;;;4982280;28;20242;-94
2022/09/27 07:42:27;;;;;;;20.47;17.03;;;16.30;99.90;;;;;;4983199;28;20217;-94
2022/09/27 07:44:59;;;;;;;20.17;16.97;;;16.20;99.90;;;;;;4980408;28;20618;-96
2022/09/27 07:47:30;;;;;;;21.27;17.53;;;16.20;99.90;;;;;;4960081;28;20211;-96
2022/09/27 07:50:02;;;;;;;22.13;17.13;;;16.10;99.90;;;;;;4979834;28;20218;-94
2022/09/27 07:52:41;;;;;;;18.77;16.77;;;16.10;99.90;;;;;;4976291;28;20242;-95
2022/09/27 07:55:15;;;;;;;20.33;17.53;;;16.00;99.90;;;;;;4976603;28;20218;-96
2022/09/27 07:57:48;;;;;;;23.83;17.50;;;16.00;99.90;;;;;;4976957;28;20221;-96
2022/09/27 08:00:20;;;;;;;19.80;17.20;;;15.90;99.90;;;;;;4976044;28;20262;-95
2022/09/27 08:02:51;;;;;;;18.40;16.43;;;15.90;99.90;;;;;;4974749;28;20218;-95
2022/09/27 08:05:23;;;;;;;21.87;17.70;;;15.90;99.90;;;;;;4962271;28;20491;-96
2022/09/27 08:08:00;;;;;;;19.73;16.73;;;15.80;99.90;;;;;;4957482;28;20207;-96
2022/09/27 08:10:31;;;;;;;20.20;16.93;;;15.80;99.90;;;;;;4955718;29;20270;-95
2022/09/27 08:13:06;;;;;;;20.53;17.00;;;15.80;99.90;;;;;;4966992;28;20213;-95
2022/09/27 08:15:37;;;;;;;20.53;17.07;;;15.70;99.90;;;;;;4976328;28;20224;-96
2022/09/27 08:18:10;;;;;;;20.60;16.47;;;15.70;99.90;;;;;;4976490;28;20218;-95
2022/09/27 08:20:41;;;;;;;18.63;16.20;;;15.60;99.90;;;;;;4978930;28;20292;-94
2022/09/27 08:23:12;;;;;;;19.43;16.37;;;15.60;99.90;;;;;;4975404;28;20215;-95
2022/09/27 08:25:43;;;;;;;19.20;16.13;;;15.60;99.90;;;;;;4976744;28;20223;-95
2022/09/27 08:28:18;;;;;;;21.87;17.30;;;15.60;99.90;;;;;;4964783;28;20211;-95
2022/09/27 08:30:49;;;;;;;21.20;16.57;;;15.50;99.90;;;;;;4975213;28;20211;-95
2022/09/27 08:33:24;;;;;;;21.60;16.93;;;15.50;99.90;;;;;;4978566;28;20294;-95
2022/09/27 08:36:04;;;;;;;18.73;16.67;;;15.50;99.90;;;;;;4978818;28;20934;-95
2022/09/27 08:38:35;;;;;;;19.10;16.77;;;15.40;99.90;;;;;;4978209;28;20217;-95
2022/09/27 08:41:13;;;;;;;20.70;16.60;;;15.40;99.90;;;;;;4962039;28;20215;-95
2022/09/27 08:43:54;;;;;;;19.60;16.77;;;15.30;99.90;;;;;;4963965;28;20219;-95
2022/09/27 08:46:34;;;;;;;21.03;17.50;;;15.30;99.90;;;;;;4979850;28;20675;-95
2022/09/27 08:49:10;;;;;;;18.87;16.53;;;15.30;99.90;;;;;;4983788;28;20224;-96
2022/09/27 08:51:43;;;;;;;21.63;16.90;;;15.30;99.90;;;;;;4982328;28;20211;-95
2022/09/27 08:54:21;;;;;;;21.00;16.73;;;15.30;99.90;;;;;;4979819;28;20211;-96
2022/09/27 08:56:55;;;;;;;20.33;17.03;;;15.30;99.90;;;;;;4979372;28;20719;-95
2022/09/27 08:59:36;;;;;;;20.87;16.40;;;15.20;99.90;;;;;;4980989;28;20698;-95
2022/09/27 09:02:17;;;;;;;20.23;16.60;;;15.20;99.90;;;;;;4960039;28;20207;-93
2022/09/27 09:04:52;;;;;;;20.37;17.27;;;15.20;99.90;;;;;;4978965;28;20206;-94
2022/09/27 09:07:43;;;;;;;20.03;17.40;;;15.20;99.90;;;;;;4988519;28;20210;-94
2022/09/27 09:13:31;;;;;;;23.17;16.70;;;15.10;99.90;;;;;;4979669;28;20215;-96
2022/09/27 09:16:14;;;;;;;19.47;17.00;;;15.10;99.90;;;;;;4968464;28;20217;-96
2022/09/27 09:19:02;;;;;;;18.13;16.23;;;15.00;99.90;;;;;;4974074;28;20210;-95
2022/09/27 09:21:46;;;;;;;19.23;16.63;;;15.00;99.90;;;;;;4978119;28;20214;-95
2022/09/27 09:24:34;;;;;;;20.33;17.13;;;15.00;99.90;;;;;;4978725;28;20218;-95
2022/09/27 09:27:14;;;;;;;20.70;16.47;;;14.90;99.90;;;;;;4979013;28;20604;-94
2022/09/27 09:30:05;;;;;;;21.33;16.67;;;15.00;99.90;;;;;;4964485;28;20199;-96
2022/09/27 09:32:51;;;;;;;17.47;15.67;;;15.00;99.90;;;;;;4978090;28;20211;-96
2022/09/27 09:35:29;;;;;;;20.23;16.87;;;14.90;99.90;;;;;;4978886;28;20211;-96
2022/09/27 09:38:04;;;;;;;23.93;17.63;;;14.90;99.90;;;;;;4978897;28;20210;-96
2022/09/27 09:40:41;;;;;;;21.43;17.53;;;14.90;99.90;;;;;;4973584;28;20261;-95
2022/09/27 09:43:19;;;;;;;19.87;17.13;;;14.80;99.90;;;;;;4977776;28;20218;-95
2022/09/27 09:45:56;;;;;;;18.67;16.77;;;14.80;99.90;;;;;;4979123;28;20209;-96
2022/09/27 09:48:38;;;;;;;19.13;16.00;;;14.80;99.90;;;;;;4979240;28;20659;-94
2022/09/27 09:51:16;;;;;;;19.17;16.40;;;14.80;99.90;;;;;;4979075;28;20215;-96
2022/09/27 09:53:55;;;;;;;20.20;16.17;;;14.80;99.90;;;;;;4958585;28;20215;-96
2022/09/27 09:56:31;;;;;;;19.67;16.60;;;14.80;99.90;;;;;;4959722;28;20215;-95
2022/09/27 09:59:06;;;;;;;18.73;16.57;;;14.80;99.90;;;;;;4959249;28;20228;-95
2022/09/27 10:01:42;;;;;;;18.47;16.27;;;14.70;99.90;;;;;;4964508;28;20234;-96
2022/09/27 10:04:20;;;;;;;18.10;16.20;;;14.70;99.90;;;;;;4978594;28;20274;-96
2022/09/27 10:06:52;;;;;;;18.17;16.20;;;14.70;99.90;;;;;;4978832;28;20234;-96
2022/09/27 10:09:27;;;;;;;18.50;16.57;;;14.70;99.90;;;;;;4980520;28;20223;-95
2022/09/27 10:11:58;;;;;;;20.70;16.43;;;14.70;99.90;;;;;;4982639;28;20939;-96
2022/09/27 10:14:30;;;;;;;21.47;16.47;;;14.60;99.90;;;;;;4980069;28;20218;-94
2022/09/27 10:17:04;;;;;;;18.13;16.13;;;14.60;99.90;;;;;;4983288;28;20202;-95
2022/09/27 10:19:39;;;;;;;17.00;15.30;;;14.50;99.90;;;;;;4991358;28;20190;-95
2022/09/27 10:22:19;;;;;;;24.27;17.07;;;14.50;99.90;;;;;;4995349;28;20229;-94
2022/09/27 10:25:00;;;;;;;19.70;16.83;;;14.40;99.90;;;;;;4998679;28;20195;-95
2022/09/27 10:27:42;;;;;;;18.97;16.80;;;14.40;99.90;;;;;;4999041;28;20266;-95
2022/09/27 10:30:28;;;;;;;18.27;16.20;;;14.40;99.90;;;;;;4994417;28;20203;-95
2022/09/27 10:33:05;;;;;;;17.47;15.67;;;14.40;99.90;;;;;;4978296;28;20224;-96
2022/09/27 10:35:43;;;;;;;20.47;16.93;;;14.40;99.90;;;;;;4978582;28;20636;-94
2022/09/27 10:38:24;;;;;;;21.13;16.40;;;14.30;99.90;;;;;;4978305;28;20217;-95
2022/09/27 10:40:57;;;;;;;19.07;16.97;;;14.30;99.90;;;;;;4978251;28;20699;-96
2022/09/27 10:43:31;;;;;;;19.33;16.13;;;14.30;99.90;;;;;;4976864;28;20219;-95
2022/09/27 10:46:13;;;;;;;20.33;16.57;;;14.30;99.90;;;;;;4978031;28;20225;-95
2022/09/27 10:48:44;;;;;;;20.33;16.27;;;14.20;99.90;;;;;;4978073;28;20653;-95
2022/09/27 10:51:36;;;;;;;19.33;16.63;;;14.20;99.90;;;;;;4978356;28;20211;-93
2022/09/27 10:54:17;;;;;;;18.40;16.47;;;14.20;99.90;;;;;;4979336;28;20211;-95
2022/09/27 10:56:57;;;;;;;20.80;16.93;;;14.20;99.90;;;;;;4977595;28;20222;-95
2022/09/27 10:59:31;;;;;;;20.83;18.17;;;14.20;99.90;;;;;;4977622;28;20213;-94
2022/09/27 11:02:02;;;;;;;23.10;16.60;;;14.10;99.90;;;;;;4967191;28;20239;-93
2022/09/27 11:04:36;;;;;;;20.77;18.20;;;14.10;99.90;;;;;;4958421;28;20212;-96
2022/09/27 11:07:17;;;;;;;18.97;16.87;;;14.10;99.90;;;;;;4973246;28;20210;-94
2022/09/27 11:09:51;;;;;;;19.50;17.13;;;14.10;99.90;;;;;;4977639;28;20221;-95
2022/09/27 11:12:24;;;;;;;23.00;17.53;;;14.10;99.90;;;;;;4976286;28;20206;-95
2022/09/27 11:14:59;;;;;;;20.63;17.53;;;14.20;99.90;;;;;;4977328;28;20675;-96
2022/09/27 11:17:39;;;;;;;19.63;16.77;;;14.10;99.90;;;;;;4977223;28;20269;-96
2022/09/27 11:20:21;;;;;;;24.60;17.43;;;14.20;99.90;;;;;;4977226;28;20644;-95
2022/09/27 11:23:34;;;;;;;20.90;17.67;;;14.10;99.90;;;;;;4976282;28;20211;-95
2022/09/27 11:26:32;;;;;;;22.63;17.83;;;14.10;99.90;;;;;;4978952;28;20191;-95
2022/09/27 11:29:15;;;;;;;21.27;17.37;;;14.00;99.90;;;;;;4985888;28;20202;-95
2022/09/27 11:32:03;;;;;;;22.73;16.47;;;14.00;99.90;;;;;;4983424;28;20297;-94
2022/09/27 11:34:52;;;;;;;21.40;17.10;;;13.90;99.90;;;;;;4979258;28;20207;-95
2022/09/27 11:37:36;;;;;;;21.57;16.63;;;13.90;99.90;;;;;;4962666;28;20223;-95
2022/09/27 11:40:20;;;;;;;21.50;17.53;;;13.90;99.90;;;;;;4961769;28;20198;-95
2022/09/27 11:43:16;;;;;;;19.47;17.47;;;13.90;99.90;;;;;;4958745;28;20225;-94
2022/09/27 11:46:01;;;;;;;21.50;18.40;;;13.90;99.90;;;;;;4971360;28;20215;-94
2022/09/27 11:49:15;;;;;;;21.50;17.50;;;13.80;99.90;;;;;;4977101;28;20211;-94
2022/09/27 11:52:00;;;;;;;22.43;17.93;;;13.80;99.90;;;;;;4976225;28;20667;-94
2022/09/27 11:54:50;;;;;;;22.93;17.60;;;13.80;99.90;;;;;;4975190;28;20295;-93
2022/09/27 11:57:27;;;;;;;19.50;17.40;;;13.70;99.90;;;;;;4976511;28;20222;-94
2022/09/27 12:00:21;;;;;;;20.80;17.07;;;13.70;99.90;;;;;;4976467;28;20230;-95
2022/09/27 12:03:36;;;;;;;19.43;17.37;;;13.70;99.90;;;;;;4956982;28;20207;-95
2022/09/27 12:06:12;;;;;;;20.10;17.33;;;13.60;99.90;;;;;;4957022;29;20211;-94
2022/09/27 12:08:57;;;;;;;20.20;16.80;;;13.60;99.90;;;;;;4957645;28;20219;-96
2022/09/27 12:11:32;;;;;;;20.80;18.37;;;13.60;99.90;;;;;;4965925;28;20203;-96
2022/09/27 12:14:11;;;;;;;23.27;17.97;;;13.60;99.90;;;;;;4976144;28;20207;-95
2022/09/27 12:16:45;;;;;;;20.07;17.53;;;13.50;99.90;;;;;;4976649;28;20210;-96
2022/09/27 12:19:20;;;;;;;21.77;18.43;;;13.50;99.90;;;;;;4976481;28;20198;-96
2022/09/27 12:21:54;;;;;;;19.33;16.63;;;13.50;99.90;;;;;;4974781;28;20278;-95
2022/09/27 12:24:26;;;;;;;23.80;17.57;;;13.50;99.90;;;;;;4975644;28;20286;-95
2022/09/27 12:27:04;;;;;;;22.27;17.10;;;13.40;99.90;;;;;;4968507;28;20242;-94
2022/09/27 12:29:40;;;;;;;20.33;17.63;;;13.50;99.90;;;;;;4956026;29;20215;-96
2022/09/27 12:32:18;;;;;;;22.53;17.37;;;13.40;99.90;;;;;;4974178;28;20215;-95
2022/09/27 12:34:57;;;;;;;22.03;17.67;;;13.40;99.90;;;;;;4978865;28;20207;-94
2022/09/27 12:37:32;;;;;;;21.27;17.37;;;13.40;99.90;;;;;;4976184;28;20297;-95
2022/09/27 12:40:14;;;;;;;20.40;17.47;;;13.40;99.90;;;;;;4976164;28;20583;-94
2022/09/27 12:42:50;;;;;;;19.30;16.87;;;13.40;99.90;;;;;;4975186;28;20691;-95
2022/09/27 12:45:36;;;;;;;20.87;16.77;;;13.40;99.90;;;;;;4966927;28;20202;-95
2022/09/27 12:48:15;;;;;;;21.07;16.93;;;13.40;99.90;;;;;;4980978;28;20675;-93
2022/09/27 12:50:50;;;;;;;20.23;16.30;;;13.40;99.90;;;;;;4980906;28;20201;-93
2022/09/27 12:53:26;;;;;;;19.70;16.13;;;13.40;99.90;;;;;;4994412;28;20206;-95
2022/09/27 12:56:17;;;;;;;18.57;15.93;;;13.40;99.90;;;;;;4994955;28;20233;-95
2022/09/27 12:59:15;;;;;;;18.27;14.93;;;13.40;99.90;;;;;;4990634;28;20231;-96
2022/09/27 13:02:03;;;;;;;17.27;14.93;;;13.40;99.90;;;;;;4982308;28;20230;-95
2022/09/27 13:04:55;;;;;;;17.00;15.20;;;13.40;99.90;;;;;;4982504;28;20222;-96
2022/09/27 13:07:43;;;;;;;17.60;15.00;;;13.40;99.90;;;;;;4976940;28;20568;-94
2022/09/27 13:10:40;;;;;;;17.77;15.87;;;13.40;99.90;;;;;;4968392;28;20238;-95
2022/09/27 13:13:15;;;;;;;19.63;15.27;;;13.30;99.90;;;;;;4976737;28;20226;-95
2022/09/27 13:15:48;;;;;;;19.30;15.77;;;13.30;99.90;;;;;;4976442;28;20277;-95
2022/09/27 13:19:00;;;;;;;17.40;14.67;;;13.30;99.90;;;;;;4976381;28;20215;-95
2022/09/27 13:21:58;;;;;;;16.80;14.80;;;13.30;99.90;;;;;;4978470;28;20252;-93